Time;durP1;ratioP1;P1;durP2;ratioP2;P2;SDS_P1;SDS_P2;PMS_P1;PMS_P2;Temp;Humidity;BMP_temperature;BMP_pressure;BME280_temperature;BME280_humidity;BME280_pressure;Samples;Min_cycle;Max_cycle;Signal;HPM_P1;HPM_P2
2024/02/22 00:00:14;;;;;;;2.60;2.07;;;8.30;73.30;;;;;;2046090;28;20180;-74
2024/02/22 00:01:16;;;;;;;2.42;1.30;;;8.20;74.20;;;;;;2057201;28;20238;-75
2024/02/22 00:02:20;;;;;;;2.53;1.58;;;8.10;75.20;;;;;;2054505;28;20317;-74
2024/02/22 00:03:20;;;;;;;3.65;1.30;;;8.10;78.00;;;;;;2049355;28;20266;-74
2024/02/22 00:04:21;;;;;;;1.77;1.30;;;7.90;81.20;;;;;;2051312;28;20231;-74
2024/02/22 00:05:22;;;;;;;1.65;1.30;;;7.90;85.00;;;;;;2053833;28;20234;-74
2024/02/22 00:06:23;;;;;;;1.60;1.33;;;7.80;86.00;;;;;;2047865;28;20318;-74
2024/02/22 00:07:23;;;;;;;2.03;1.40;;;7.70;84.00;;;;;;2046547;28;20231;-75
2024/02/22 00:08:24;;;;;;;2.97;1.60;;;7.70;86.20;;;;;;2046291;28;20314;-74
2024/02/22 00:09:25;;;;;;;1.90;1.33;;;7.60;89.60;;;;;;2028057;29;20743;-74
2024/02/22 00:10:29;;;;;;;2.33;1.57;;;7.60;90.30;;;;;;2037992;29;20235;-73
2024/02/22 00:11:29;;;;;;;2.17;1.48;;;7.50;91.00;;;;;;2035553;28;20225;-74
2024/02/22 00:12:37;;;;;;;11.97;1.77;;;7.50;90.00;;;;;;2043550;28;20757;-75
2024/02/22 00:13:38;;;;;;;1.27;1.17;;;7.50;91.90;;;;;;2051303;28;20250;-73
2024/02/22 00:14:39;;;;;;;2.43;1.20;;;7.40;92.00;;;;;;2048582;28;20260;-74
2024/02/22 00:15:41;;;;;;;1.30;1.20;;;7.30;93.60;;;;;;2049750;28;20250;-73
2024/02/22 00:16:41;;;;;;;2.22;1.40;;;7.30;94.00;;;;;;2047371;28;20605;-74
2024/02/22 00:17:42;;;;;;;4.27;1.37;;;7.20;93.60;;;;;;2046405;28;20254;-74
2024/02/22 00:18:43;;;;;;;2.67;1.50;;;7.10;94.10;;;;;;2052192;28;20362;-73
2024/02/22 00:19:44;;;;;;;2.07;1.53;;;7.10;94.80;;;;;;2054123;28;20267;-74
2024/02/22 00:20:44;;;;;;;3.13;1.50;;;7.00;94.70;;;;;;2049333;28;20297;-75
2024/02/22 00:21:45;;;;;;;1.93;1.67;;;7.00;95.80;;;;;;2041784;29;20330;-71
2024/02/22 00:22:46;;;;;;;1.90;1.60;;;7.00;96.70;;;;;;2049446;28;20691;-71
2024/02/22 00:23:46;;;;;;;1.93;1.20;;;7.10;95.20;;;;;;2055663;28;20239;-71
2024/02/22 00:24:48;;;;;;;1.67;1.23;;;7.00;95.80;;;;;;2057656;28;20265;-71
2024/02/22 00:25:48;;;;;;;1.77;1.30;;;7.00;95.80;;;;;;2041253;28;20236;-71
2024/02/22 00:26:49;;;;;;;1.73;1.40;;;7.00;95.90;;;;;;2040965;28;20653;-71
2024/02/22 00:27:50;;;;;;;1.83;1.40;;;7.00;95.80;;;;;;2058296;28;20233;-71
2024/02/22 00:28:51;;;;;;;1.67;1.20;;;7.00;95.30;;;;;;2061208;28;20233;-71
2024/02/22 00:29:51;;;;;;;2.50;1.70;;;7.00;96.20;;;;;;2042379;28;20239;-71
2024/02/22 00:30:52;;;;;;;1.23;1.07;;;6.90;96.50;;;;;;2050783;28;20241;-70
2024/02/22 00:31:53;;;;;;;1.70;1.40;;;6.90;97.10;;;;;;2049849;28;20633;-72
2024/02/22 00:32:53;;;;;;;2.63;1.50;;;6.80;98.50;;;;;;2053656;28;20239;-71
2024/02/22 00:33:54;;;;;;;1.60;1.30;;;6.80;97.80;;;;;;2049953;28;20254;-71
2024/02/22 00:34:55;;;;;;;2.83;1.50;;;6.70;98.50;;;;;;2056218;28;20260;-71
2024/02/22 00:35:56;;;;;;;2.73;1.60;;;6.70;98.20;;;;;;2050747;28;20198;-71
2024/02/22 00:36:56;;;;;;;3.17;1.50;;;6.70;98.20;;;;;;2042432;28;20188;-72
2024/02/22 00:37:57;;;;;;;1.63;1.40;;;6.70;98.90;;;;;;2049658;28;20187;-72
2024/02/22 00:38:58;;;;;;;2.87;1.70;;;6.70;98.20;;;;;;2050607;28;20787;-72
2024/02/22 00:39:58;;;;;;;1.43;1.23;;;6.70;98.60;;;;;;2054182;28;20266;-73
2024/02/22 00:40:59;;;;;;;1.50;1.40;;;6.70;99.50;;;;;;2046485;28;20179;-73
2024/02/22 00:42:00;;;;;;;2.13;1.53;;;6.70;99.30;;;;;;2038516;29;20274;-73
2024/02/22 00:43:01;;;;;;;1.87;1.50;;;6.60;99.70;;;;;;2059077;28;20186;-73
2024/02/22 00:44:01;;;;;;;1.97;1.37;;;6.60;99.40;;;;;;2054552;28;20195;-73
2024/02/22 00:45:03;;;;;;;1.27;1.17;;;6.50;99.90;;;;;;2049470;28;20229;-73
2024/02/22 00:46:04;;;;;;;2.55;1.23;;;6.60;99.60;;;;;;2045741;28;20571;-73
2024/02/22 00:47:05;;;;;;;1.40;1.27;;;6.60;99.70;;;;;;2054081;28;20199;-73
2024/02/22 00:48:06;;;;;;;1.20;1.10;;;6.50;99.90;;;;;;2051644;28;20614;-75
2024/02/22 00:49:07;;;;;;;2.05;1.83;;;6.50;99.90;;;;;;2046237;28;20275;-73
2024/02/22 00:50:08;;;;;;;2.53;1.50;;;6.50;99.90;;;;;;2042476;28;20186;-74
2024/02/22 00:51:09;;;;;;;2.88;1.70;;;6.50;99.90;;;;;;2040458;28;20430;-74
2024/02/22 00:52:09;;;;;;;2.87;1.33;;;6.40;99.90;;;;;;2050595;28;20715;-74
2024/02/22 00:53:10;;;;;;;2.93;1.63;;;6.50;99.90;;;;;;2046776;28;20290;-74
2024/02/22 00:54:12;;;;;;;2.67;1.50;;;6.50;99.90;;;;;;2052729;28;20707;-74
2024/02/22 00:55:13;;;;;;;1.10;0.93;;;6.50;99.90;;;;;;2053232;28;20567;-73
2024/02/22 00:56:15;;;;;;;1.40;1.30;;;6.50;99.90;;;;;;2051818;28;20206;-74
2024/02/22 00:57:16;;;;;;;1.63;1.27;;;6.40;99.90;;;;;;2055233;28;20226;-74
2024/02/22 00:58:17;;;;;;;1.53;1.30;;;6.40;99.90;;;;;;2038741;29;20236;-73
2024/02/22 00:59:17;;;;;;;1.80;1.20;;;6.40;99.90;;;;;;2037933;29;20237;-74
2024/02/22 01:00:18;;;;;;;1.77;1.27;;;6.30;99.90;;;;;;2040421;29;20220;-74
2024/02/22 01:01:19;;;;;;;1.83;1.30;;;6.30;99.90;;;;;;2038135;29;20232;-73
2024/02/22 01:02:21;;;;;;;2.00;1.20;;;6.30;99.90;;;;;;2037896;28;20235;-74
2024/02/22 01:03:22;;;;;;;1.27;1.17;;;6.40;99.90;;;;;;2038178;28;20224;-73
2024/02/22 01:04:23;;;;;;;1.70;1.47;;;6.40;99.90;;;;;;2038003;29;20228;-72
2024/02/22 01:05:23;;;;;;;1.77;1.53;;;6.40;99.90;;;;;;2034869;29;20802;-74
2024/02/22 01:06:24;;;;;;;2.10;1.20;;;6.40;99.90;;;;;;2049578;28;20238;-73
2024/02/22 01:07:24;;;;;;;2.37;1.57;;;6.30;99.90;;;;;;2056130;28;20258;-74
2024/02/22 01:08:25;;;;;;;1.87;1.40;;;6.30;99.90;;;;;;2046700;28;20235;-74
2024/02/22 01:09:26;;;;;;;2.43;1.50;;;6.40;99.90;;;;;;2038253;29;20686;-74
2024/02/22 01:10:26;;;;;;;2.17;1.20;;;6.40;99.90;;;;;;2034489;28;20289;-74
2024/02/22 01:11:27;;;;;;;3.43;2.10;;;6.40;99.90;;;;;;2054782;28;20600;-74
2024/02/22 01:12:28;;;;;;;2.00;1.57;;;6.40;99.90;;;;;;2053770;28;20246;-75
2024/02/22 01:13:29;;;;;;;1.80;1.40;;;6.40;99.90;;;;;;2052104;28;20238;-75
2024/02/22 01:14:30;;;;;;;2.63;1.30;;;6.40;99.90;;;;;;2058336;28;20258;-74
2024/02/22 01:15:30;;;;;;;1.90;1.23;;;6.40;99.90;;;;;;2054872;28;20262;-75
2024/02/22 01:16:31;;;;;;;1.83;1.20;;;6.40;99.90;;;;;;2052506;28;20235;-74
2024/02/22 01:17:32;;;;;;;3.10;1.67;;;6.40;99.90;;;;;;2050406;28;20295;-74
2024/02/22 01:18:34;;;;;;;4.67;1.83;;;6.40;99.90;;;;;;2046446;28;20606;-74
2024/02/22 01:19:34;;;;;;;1.10;1.10;;;6.50;99.90;;;;;;2043184;28;20232;-75
2024/02/22 01:20:35;;;;;;;6.20;1.13;;;6.50;99.90;;;;;;2055426;28;20241;-74
2024/02/22 01:21:35;;;;;;;1.37;1.10;;;6.50;99.90;;;;;;2052145;28;20231;-76
2024/02/22 01:22:37;;;;;;;2.40;1.70;;;6.60;99.90;;;;;;2047253;28;20239;-75
2024/02/22 01:23:38;;;;;;;3.15;1.58;;;6.60;99.90;;;;;;2050804;28;20252;-74
2024/02/22 01:24:39;;;;;;;1.77;1.17;;;6.60;99.90;;;;;;2046864;28;20703;-75
2024/02/22 01:25:40;;;;;;;2.30;1.40;;;6.60;99.90;;;;;;2052095;28;20233;-74
2024/02/22 01:26:41;;;;;;;3.57;1.60;;;6.60;99.90;;;;;;2056109;28;20250;-75
2024/02/22 01:27:42;;;;;;;2.47;1.30;;;6.60;99.90;;;;;;2051226;28;20231;-75
2024/02/22 01:28:43;;;;;;;1.25;1.00;;;6.60;99.90;;;;;;2057057;28;20285;-75
2024/02/22 01:29:44;;;;;;;2.67;1.40;;;6.70;99.90;;;;;;2051001;28;20290;-75
2024/02/22 01:30:45;;;;;;;2.10;1.20;;;6.70;99.90;;;;;;2046118;28;20644;-75
2024/02/22 01:31:45;;;;;;;5.80;0.90;;;6.70;99.90;;;;;;2048997;28;20258;-75
2024/02/22 01:32:46;;;;;;;1.70;1.30;;;6.70;99.90;;;;;;2052726;28;20284;-75
2024/02/22 01:33:47;;;;;;;1.10;1.00;;;6.80;99.90;;;;;;2052883;28;20227;-75
2024/02/22 01:34:47;;;;;;;1.80;0.90;;;6.70;99.90;;;;;;2052584;28;20725;-76
2024/02/22 01:35:49;;;;;;;1.77;1.33;;;6.80;99.90;;;;;;2047385;28;20363;-75
2024/02/22 01:36:50;;;;;;;2.42;1.33;;;6.70;99.90;;;;;;2054066;28;20318;-75
2024/02/22 01:37:50;;;;;;;1.53;1.20;;;6.60;99.90;;;;;;2044941;28;20234;-75
2024/02/22 01:38:51;;;;;;;1.43;1.00;;;6.60;99.90;;;;;;2030990;29;20687;-76
2024/02/22 01:39:52;;;;;;;1.50;1.03;;;6.60;99.90;;;;;;2034472;29;20319;-75
2024/02/22 01:40:53;;;;;;;1.13;1.00;;;6.50;99.90;;;;;;2053498;28;20243;-75
2024/02/22 01:41:53;;;;;;;1.00;0.90;;;6.60;99.90;;;;;;2046896;28;20261;-75
2024/02/22 01:42:55;;;;;;;1.10;1.00;;;6.60;99.90;;;;;;2045754;28;20235;-75
2024/02/22 01:43:55;;;;;;;1.13;1.02;;;6.60;99.90;;;;;;2053847;28;20226;-74
2024/02/22 01:44:56;;;;;;;1.67;1.20;;;6.60;99.90;;;;;;2053308;28;20193;-74
2024/02/22 01:45:58;;;;;;;1.57;1.13;;;6.60;99.90;;;;;;2038211;28;20196;-75
2024/02/22 01:46:58;;;;;;;1.23;1.00;;;6.60;99.90;;;;;;2053658;28;20194;-74
2024/02/22 01:47:59;;;;;;;1.03;0.90;;;6.60;99.90;;;;;;2043277;28;20184;-74
2024/02/22 01:49:01;;;;;;;2.37;1.20;;;6.60;99.90;;;;;;2041199;29;20303;-75
2024/02/22 01:50:03;;;;;;;1.15;1.00;;;6.60;99.90;;;;;;2038419;28;20196;-75
2024/02/22 01:51:04;;;;;;;2.55;1.10;;;6.60;99.90;;;;;;2046285;28;20175;-75
2024/02/22 01:52:07;;;;;;;1.38;1.27;;;6.50;99.90;;;;;;2047080;28;20210;-75
2024/02/22 01:53:10;;;;;;;1.40;1.30;;;6.50;99.90;;;;;;2052322;28;20238;-74
2024/02/22 01:54:13;;;;;;;0.90;0.80;;;6.40;99.90;;;;;;2032949;28;20197;-74
2024/02/22 01:55:16;;;;;;;2.00;1.25;;;6.40;99.90;;;;;;2038654;29;20204;-74
2024/02/22 01:56:20;;;;;;;1.10;0.93;;;6.40;99.90;;;;;;2046787;28;20236;-74
2024/02/22 01:57:22;;;;;;;1.08;0.98;;;6.50;99.90;;;;;;2050828;28;20588;-74
2024/02/22 01:58:22;;;;;;;2.03;0.93;;;6.50;99.90;;;;;;2039098;28;20240;-75
2024/02/22 01:59:23;;;;;;;0.90;0.80;;;6.50;99.90;;;;;;2033954;29;20578;-74
2024/02/22 02:00:27;;;;;;;1.52;1.00;;;6.50;99.90;;;;;;2038443;28;20235;-74
2024/02/22 02:01:28;;;;;;;2.80;0.93;;;6.40;99.90;;;;;;2050991;28;20223;-75
2024/02/22 02:02:29;;;;;;;1.42;1.00;;;6.30;99.90;;;;;;2049219;28;20237;-75
2024/02/22 02:03:31;;;;;;;1.40;1.17;;;6.40;99.90;;;;;;2048794;28;20702;-75
2024/02/22 02:04:32;;;;;;;0.98;0.80;;;6.40;99.90;;;;;;2049637;28;20242;-74
2024/02/22 02:05:33;;;;;;;1.53;0.90;;;6.30;99.90;;;;;;2050907;28;20253;-75
2024/02/22 02:06:33;;;;;;;1.20;1.10;;;6.30;99.90;;;;;;2041666;29;20300;-75
2024/02/22 02:07:37;;;;;;;0.97;0.90;;;6.30;99.90;;;;;;2050498;28;21250;-75
2024/02/22 02:08:38;;;;;;;0.75;0.70;;;6.30;99.90;;;;;;2042443;28;20224;-75
2024/02/22 02:09:40;;;;;;;1.42;1.00;;;6.30;99.90;;;;;;2045569;28;20258;-75
2024/02/22 02:10:40;;;;;;;1.30;1.20;;;6.40;99.90;;;;;;2051262;28;20237;-75
2024/02/22 02:11:44;;;;;;;1.20;1.00;;;6.40;99.90;;;;;;2039039;28;20598;-75
2024/02/22 02:12:44;;;;;;;1.10;0.90;;;6.40;99.90;;;;;;2042682;28;20575;-76
2024/02/22 02:13:45;;;;;;;1.60;1.27;;;6.40;99.90;;;;;;2042235;28;20242;-76
2024/02/22 02:14:46;;;;;;;1.23;0.80;;;6.40;99.90;;;;;;2038656;28;20243;-76
2024/02/22 02:15:46;;;;;;;2.27;1.10;;;6.40;99.90;;;;;;2049524;28;20238;-76
2024/02/22 02:16:47;;;;;;;0.90;0.80;;;6.40;99.90;;;;;;2039464;28;20232;-76
2024/02/22 02:17:48;;;;;;;1.67;0.97;;;6.40;99.90;;;;;;2050099;28;20297;-75
2024/02/22 02:18:49;;;;;;;1.10;0.90;;;6.30;99.90;;;;;;2048925;28;20254;-75
2024/02/22 02:19:56;;;;;;;0.83;0.83;;;6.30;99.90;;;;;;2051998;28;20262;-76
2024/02/22 02:21:09;;;;;;;1.60;1.13;;;6.30;99.90;;;;;;2042857;28;20456;-76
2024/02/22 02:22:37;;;;;;;0.70;0.63;;;6.30;99.90;;;;;;2049371;28;20281;-75
2024/02/22 02:24:29;;;;;;;1.10;0.80;;;6.30;99.90;;;;;;2055124;28;20226;-75
2024/02/22 02:25:30;;;;;;;0.93;0.77;;;6.40;99.90;;;;;;2052661;28;20998;-75
2024/02/22 02:26:31;;;;;;;0.75;0.70;;;6.30;99.90;;;;;;2045590;28;20722;-75
2024/02/22 02:27:34;;;;;;;0.98;0.85;;;6.30;99.90;;;;;;2037247;29;20327;-74
2024/02/22 02:28:34;;;;;;;1.00;0.80;;;6.40;99.90;;;;;;2051564;28;20755;-74
2024/02/22 02:29:35;;;;;;;1.93;0.70;;;6.40;99.90;;;;;;2043936;28;20242;-74
2024/02/22 02:30:36;;;;;;;1.03;0.90;;;6.30;99.90;;;;;;2040797;28;20337;-74
2024/02/22 02:31:36;;;;;;;1.10;0.87;;;6.40;99.90;;;;;;2039749;29;20709;-74
2024/02/22 02:32:38;;;;;;;1.80;0.87;;;6.40;99.90;;;;;;2043499;28;20243;-74
2024/02/22 02:33:39;;;;;;;1.00;0.80;;;6.40;99.90;;;;;;2039353;28;20232;-73
2024/02/22 02:34:39;;;;;;;0.97;0.80;;;6.40;99.90;;;;;;2056033;28;20234;-74
2024/02/22 02:35:40;;;;;;;1.10;0.80;;;6.40;99.90;;;;;;2044861;28;20231;-73
2024/02/22 02:36:40;;;;;;;2.00;1.20;;;6.40;99.90;;;;;;2032540;29;20740;-73
2024/02/22 02:37:41;;;;;;;1.10;1.00;;;6.40;99.90;;;;;;2038370;28;20228;-74
2024/02/22 02:38:42;;;;;;;1.67;1.10;;;6.40;99.90;;;;;;2045404;28;20235;-74
2024/02/22 02:39:42;;;;;;;0.93;0.83;;;6.40;99.90;;;;;;2039909;29;20285;-73
2024/02/22 02:40:43;;;;;;;0.60;0.60;;;6.40;99.90;;;;;;2037053;28;20318;-73
2024/02/22 02:41:44;;;;;;;1.17;0.80;;;6.40;99.90;;;;;;2044124;28;20294;-73
2024/02/22 02:42:44;;;;;;;1.30;0.93;;;6.40;99.90;;;;;;2055676;28;20230;-73
2024/02/22 02:43:45;;;;;;;1.87;0.60;;;6.40;99.90;;;;;;2053803;28;20234;-73
2024/02/22 02:44:46;;;;;;;1.20;0.73;;;6.40;99.90;;;;;;2048015;28;20692;-73
2024/02/22 02:45:46;;;;;;;0.70;0.63;;;6.40;99.90;;;;;;2048560;28;20237;-73
2024/02/22 02:46:47;;;;;;;0.97;0.70;;;6.40;99.90;;;;;;2041318;29;20239;-74
2024/02/22 02:47:48;;;;;;;0.77;0.60;;;6.40;99.90;;;;;;2041447;29;20379;-75
2024/02/22 02:48:49;;;;;;;0.60;0.60;;;6.40;99.90;;;;;;2038074;28;20985;-76
2024/02/22 02:49:49;;;;;;;1.30;0.80;;;6.40;99.90;;;;;;2056470;28;20654;-75
2024/02/22 02:50:50;;;;;;;0.57;0.57;;;6.40;99.90;;;;;;2046557;28;20235;-75
2024/02/22 02:51:51;;;;;;;0.70;0.70;;;6.40;99.90;;;;;;2058155;28;20237;-75
2024/02/22 02:52:53;;;;;;;0.50;0.50;;;6.50;99.90;;;;;;2049170;28;20473;-75
2024/02/22 02:53:53;;;;;;;0.93;0.70;;;6.50;99.90;;;;;;2048653;28;20637;-76
2024/02/22 02:54:54;;;;;;;0.87;0.87;;;6.50;99.90;;;;;;2044063;28;20277;-75
2024/02/22 02:55:55;;;;;;;0.73;0.50;;;6.50;99.90;;;;;;2043287;28;20235;-75
2024/02/22 02:56:55;;;;;;;0.50;0.50;;;6.50;99.90;;;;;;2048786;28;20179;-78
2024/02/22 02:57:58;;;;;;;0.80;0.73;;;6.50;99.90;;;;;;2056707;28;20187;-76
2024/02/22 02:58:59;;;;;;;1.33;0.52;;;6.50;99.90;;;;;;2044401;28;20274;-76
2024/02/22 02:59:59;;;;;;;0.60;0.60;;;6.50;99.90;;;;;;2045309;28;20233;-76
2024/02/22 03:01:00;;;;;;;0.77;0.70;;;6.50;99.90;;;;;;2058189;28;20412;-76
2024/02/22 03:02:01;;;;;;;0.40;0.40;;;6.60;99.90;;;;;;2060105;28;20225;-76
2024/02/22 03:03:01;;;;;;;0.67;0.50;;;6.60;99.90;;;;;;2046599;28;20194;-75
2024/02/22 03:04:02;;;;;;;0.50;0.50;;;6.60;99.90;;;;;;2035284;28;20184;-75
2024/02/22 03:05:03;;;;;;;0.83;0.70;;;6.60;99.90;;;;;;2058063;28;20218;-75
2024/02/22 03:06:04;;;;;;;0.55;0.55;;;6.60;99.90;;;;;;2049259;28;20317;-76
2024/02/22 03:07:05;;;;;;;1.87;0.57;;;6.60;99.90;;;;;;2049413;28;20564;-75
2024/02/22 03:08:06;;;;;;;2.77;0.53;;;6.60;99.90;;;;;;2050815;28;20547;-76
2024/02/22 03:09:07;;;;;;;0.40;0.40;;;6.60;99.90;;;;;;2052399;28;20211;-76
2024/02/22 03:10:08;;;;;;;0.40;0.40;;;6.60;99.90;;;;;;2030885;29;20190;-76
2024/02/22 03:11:09;;;;;;;0.50;0.50;;;6.70;99.90;;;;;;2036469;29;20195;-76
2024/02/22 03:12:09;;;;;;;0.30;0.30;;;6.60;99.90;;;;;;2048386;28;20203;-75
2024/02/22 03:13:11;;;;;;;0.40;0.40;;;6.60;99.90;;;;;;2052074;28;20660;-76
2024/02/22 03:14:12;;;;;;;0.70;0.60;;;6.70;99.90;;;;;;2047165;28;20184;-75
2024/02/22 03:15:15;;;;;;;0.40;0.40;;;6.60;99.90;;;;;;2045927;28;20205;-76
2024/02/22 03:16:16;;;;;;;0.50;0.50;;;6.60;99.90;;;;;;2051086;28;20265;-75
2024/02/22 03:17:17;;;;;;;0.40;0.40;;;6.60;99.90;;;;;;2052657;28;20226;-76
2024/02/22 03:18:18;;;;;;;0.52;0.47;;;6.70;99.90;;;;;;2057307;28;20227;-75
2024/02/22 03:19:19;;;;;;;0.80;0.73;;;6.70;99.90;;;;;;2051408;28;20237;-75
2024/02/22 03:20:20;;;;;;;0.50;0.40;;;6.70;99.90;;;;;;2036604;28;20227;-75
2024/02/22 03:21:21;;;;;;;0.55;0.40;;;6.70;99.90;;;;;;2046099;28;20659;-75
2024/02/22 03:22:23;;;;;;;0.47;0.40;;;6.70;99.90;;;;;;2057432;28;20229;-75
2024/02/22 03:23:24;;;;;;;0.40;0.40;;;6.70;99.90;;;;;;2046874;28;20229;-76
2024/02/22 03:24:26;;;;;;;0.40;0.40;;;6.70;99.90;;;;;;2045451;28;20233;-76
2024/02/22 03:25:29;;;;;;;0.40;0.40;;;6.70;99.90;;;;;;2041012;28;20230;-77
2024/02/22 03:26:30;;;;;;;0.40;0.40;;;6.70;99.90;;;;;;2042383;28;20298;-76
2024/02/22 03:27:32;;;;;;;0.40;0.40;;;6.70;99.90;;;;;;2049167;28;20297;-76
2024/02/22 03:28:33;;;;;;;1.10;0.60;;;6.80;99.90;;;;;;2052774;28;20304;-76
2024/02/22 03:29:33;;;;;;;0.43;0.43;;;6.70;99.90;;;;;;2051781;28;20228;-77
2024/02/22 03:30:34;;;;;;;0.33;0.33;;;6.80;99.90;;;;;;2057271;28;20230;-75
2024/02/22 03:31:35;;;;;;;0.30;0.30;;;6.70;99.90;;;;;;2055314;28;20230;-76
2024/02/22 03:32:38;;;;;;;0.73;0.40;;;6.80;99.90;;;;;;2051915;28;20230;-76
2024/02/22 03:33:41;;;;;;;0.40;0.40;;;6.80;99.90;;;;;;2048364;28;20745;-77
2024/02/22 03:34:41;;;;;;;0.40;0.40;;;6.80;99.90;;;;;;2050928;28;20234;-75
2024/02/22 03:35:42;;;;;;;0.30;0.30;;;6.80;99.90;;;;;;2042990;28;20235;-76
2024/02/22 03:36:46;;;;;;;0.40;0.40;;;6.80;99.90;;;;;;2044131;28;20242;-76
2024/02/22 03:37:46;;;;;;;1.08;0.50;;;6.80;99.90;;;;;;2045246;28;20235;-76
2024/02/22 03:38:47;;;;;;;0.40;0.40;;;6.80;99.90;;;;;;2049023;28;20306;-76
2024/02/22 03:39:49;;;;;;;0.73;0.73;;;6.90;99.90;;;;;;2053621;28;20231;-76
2024/02/22 03:40:50;;;;;;;0.40;0.40;;;6.90;99.90;;;;;;2052526;28;20230;-77
2024/02/22 03:41:52;;;;;;;0.47;0.47;;;6.90;99.90;;;;;;2052367;28;21063;-75
2024/02/22 03:42:53;;;;;;;0.73;0.50;;;6.90;99.90;;;;;;2052932;28;20734;-75
2024/02/22 03:43:53;;;;;;;0.47;0.40;;;6.90;99.90;;;;;;2054265;28;20234;-76
2024/02/22 03:44:54;;;;;;;0.40;0.40;;;6.90;99.90;;;;;;2055191;28;20292;-75
2024/02/22 03:45:55;;;;;;;0.40;0.40;;;6.90;99.90;;;;;;2045174;28;20231;-75
2024/02/22 03:46:56;;;;;;;0.50;0.47;;;6.90;99.90;;;;;;2051058;28;20438;-74
2024/02/22 03:47:57;;;;;;;0.47;0.40;;;6.90;99.90;;;;;;2051713;28;20198;-75
2024/02/22 03:48:58;;;;;;;0.43;0.40;;;6.90;99.90;;;;;;2059676;28;20193;-75
2024/02/22 03:49:59;;;;;;;0.40;0.40;;;6.90;99.90;;;;;;2038256;28;20218;-76
2024/02/22 03:51:00;;;;;;;0.90;0.40;;;6.90;99.90;;;;;;2042947;28;20326;-76
2024/02/22 03:52:01;;;;;;;0.47;0.47;;;6.90;99.90;;;;;;2052183;28;20319;-76
2024/02/22 03:53:01;;;;;;;1.80;0.60;;;6.90;99.90;;;;;;2050776;28;20193;-76
2024/02/22 03:54:02;;;;;;;0.90;0.60;;;6.90;99.90;;;;;;2045880;28;20189;-77
2024/02/22 03:55:03;;;;;;;0.43;0.43;;;7.00;99.90;;;;;;2043533;28;20212;-77
2024/02/22 03:56:04;;;;;;;0.43;0.40;;;7.00;99.90;;;;;;2043906;28;20791;-77
2024/02/22 03:57:05;;;;;;;0.80;0.60;;;6.90;99.90;;;;;;2053227;28;20221;-76
2024/02/22 03:58:06;;;;;;;0.40;0.40;;;6.90;99.90;;;;;;2050212;28;20194;-76
2024/02/22 03:59:07;;;;;;;0.55;0.55;;;6.90;99.90;;;;;;2040004;28;20192;-76
2024/02/22 04:00:08;;;;;;;0.60;0.50;;;6.90;99.90;;;;;;2052684;28;20194;-75
2024/02/22 04:01:09;;;;;;;0.40;0.40;;;6.90;99.90;;;;;;2042977;28;20190;-76
2024/02/22 04:02:10;;;;;;;0.50;0.50;;;6.90;99.90;;;;;;2048506;28;20207;-76
2024/02/22 04:03:10;;;;;;;0.50;0.50;;;6.90;99.90;;;;;;2044840;28;20191;-75
2024/02/22 04:04:11;;;;;;;0.40;0.40;;;6.90;99.90;;;;;;2033845;29;20235;-75
2024/02/22 04:05:15;;;;;;;1.87;0.70;;;6.90;99.90;;;;;;2044267;28;20315;-75
2024/02/22 04:06:16;;;;;;;0.30;0.30;;;6.90;99.90;;;;;;2046759;28;20242;-75
2024/02/22 04:07:16;;;;;;;0.47;0.47;;;6.90;99.90;;;;;;2038799;29;20239;-74
2024/02/22 04:08:17;;;;;;;0.50;0.43;;;6.90;99.90;;;;;;2047449;28;20239;-75
2024/02/22 04:09:18;;;;;;;0.40;0.40;;;7.00;99.90;;;;;;2061351;28;20301;-75
2024/02/22 04:10:19;;;;;;;0.40;0.40;;;7.00;99.90;;;;;;2042416;29;20243;-75
2024/02/22 04:11:19;;;;;;;0.70;0.60;;;7.00;99.90;;;;;;2054695;28;20239;-76
2024/02/22 04:12:20;;;;;;;0.53;0.53;;;7.00;99.90;;;;;;2057490;28;20248;-76
2024/02/22 04:13:21;;;;;;;1.48;0.60;;;7.10;99.90;;;;;;2051941;28;20227;-77
2024/02/22 04:14:22;;;;;;;0.40;0.40;;;7.10;99.90;;;;;;2041527;29;20243;-77
2024/02/22 04:15:22;;;;;;;1.23;0.50;;;7.10;99.90;;;;;;2042951;28;20771;-75
2024/02/22 04:16:23;;;;;;;0.50;0.50;;;7.10;99.90;;;;;;2050112;28;20643;-75
2024/02/22 04:17:24;;;;;;;0.40;0.40;;;7.10;99.90;;;;;;2053102;28;20732;-76
2024/02/22 04:18:24;;;;;;;0.50;0.50;;;7.10;99.90;;;;;;2050225;28;20344;-76
2024/02/22 04:19:25;;;;;;;0.40;0.40;;;7.10;99.90;;;;;;2053370;28;20249;-76
2024/02/22 04:20:26;;;;;;;0.40;0.40;;;7.10;99.90;;;;;;2038462;28;20262;-76
2024/02/22 04:21:26;;;;;;;0.43;0.43;;;7.20;99.90;;;;;;2050748;28;20739;-76
2024/02/22 04:22:27;;;;;;;0.50;0.50;;;7.20;99.90;;;;;;2057012;28;20675;-76
2024/02/22 04:23:28;;;;;;;1.50;0.83;;;7.20;99.90;;;;;;2046726;28;20232;-76
2024/02/22 04:24:29;;;;;;;0.50;0.50;;;7.10;99.90;;;;;;2053045;28;20760;-76
2024/02/22 04:25:29;;;;;;;0.40;0.40;;;7.10;99.90;;;;;;2050428;28;20232;-76
2024/02/22 04:26:30;;;;;;;0.63;0.50;;;7.00;99.90;;;;;;2047255;28;20317;-77
2024/02/22 04:27:31;;;;;;;0.83;0.50;;;7.10;99.90;;;;;;2056354;28;20757;-77
2024/02/22 04:28:32;;;;;;;0.50;0.50;;;7.10;99.90;;;;;;2042019;28;20341;-77
2024/02/22 04:29:32;;;;;;;1.17;0.55;;;7.10;99.90;;;;;;2046266;28;20321;-78
2024/02/22 04:30:33;;;;;;;0.30;0.30;;;7.20;99.90;;;;;;2043713;28;20617;-76
2024/02/22 04:31:34;;;;;;;1.47;0.40;;;7.10;99.90;;;;;;2044025;28;20230;-76
2024/02/22 04:32:34;;;;;;;2.77;0.50;;;7.10;99.90;;;;;;2046084;28;20245;-77
2024/02/22 04:33:35;;;;;;;0.30;0.30;;;7.10;99.90;;;;;;2044363;28;20228;-76
2024/02/22 04:34:36;;;;;;;0.50;0.50;;;7.10;99.90;;;;;;2054295;28;20313;-76
2024/02/22 04:35:37;;;;;;;0.40;0.40;;;7.10;99.90;;;;;;2054490;28;20229;-76
2024/02/22 04:36:41;;;;;;;1.90;0.50;;;7.20;99.90;;;;;;2047365;28;20235;-77
2024/02/22 04:37:42;;;;;;;0.40;0.40;;;7.10;99.90;;;;;;2053684;28;20253;-76
2024/02/22 04:38:43;;;;;;;1.90;0.67;;;7.20;99.90;;;;;;2040497;28;20228;-76
2024/02/22 04:39:44;;;;;;;0.73;0.40;;;7.20;99.90;;;;;;2052732;28;20935;-77
2024/02/22 04:40:44;;;;;;;0.40;0.40;;;7.20;99.90;;;;;;2053096;28;20228;-77
2024/02/22 04:41:45;;;;;;;0.30;0.30;;;7.20;99.90;;;;;;2038173;29;20723;-76
2024/02/22 04:42:46;;;;;;;1.03;0.87;;;7.20;99.90;;;;;;2043722;29;20250;-77
2024/02/22 04:43:46;;;;;;;0.40;0.40;;;7.20;99.90;;;;;;2050731;28;20246;-77
2024/02/22 04:44:47;;;;;;;0.53;0.50;;;7.20;99.90;;;;;;2042188;28;20707;-76
2024/02/22 04:45:48;;;;;;;0.30;0.30;;;7.20;99.90;;;;;;2052468;28;20701;-76
2024/02/22 04:46:48;;;;;;;0.47;0.47;;;7.30;99.90;;;;;;2053066;28;20329;-76
2024/02/22 04:47:50;;;;;;;0.50;0.50;;;7.30;99.90;;;;;;2052393;28;20237;-76
2024/02/22 04:48:51;;;;;;;0.38;0.38;;;7.30;99.90;;;;;;2041977;28;20632;-76
2024/02/22 04:49:52;;;;;;;0.90;0.57;;;7.20;99.90;;;;;;2040606;28;20231;-76
2024/02/22 04:50:53;;;;;;;1.60;0.77;;;7.20;99.90;;;;;;2045122;28;20240;-76
2024/02/22 04:51:54;;;;;;;0.50;0.50;;;7.20;99.90;;;;;;2036618;29;20368;-76
2024/02/22 04:52:55;;;;;;;1.03;0.77;;;7.20;99.90;;;;;;2036524;28;20224;-75
2024/02/22 04:53:56;;;;;;;0.50;0.50;;;7.20;99.90;;;;;;2038838;28;20188;-76
2024/02/22 04:54:59;;;;;;;1.60;0.50;;;7.20;99.90;;;;;;2047178;28;20237;-77
2024/02/22 04:55:59;;;;;;;0.40;0.40;;;7.30;99.90;;;;;;2052887;28;20628;-77
2024/02/22 04:57:00;;;;;;;1.27;0.47;;;7.20;99.90;;;;;;2052786;28;20187;-76
2024/02/22 04:58:03;;;;;;;0.47;0.40;;;7.30;99.90;;;;;;2040676;28;20688;-77
2024/02/22 04:59:04;;;;;;;0.40;0.40;;;7.20;99.90;;;;;;2050370;28;20190;-76
2024/02/22 05:00:08;;;;;;;0.30;0.30;;;7.20;99.90;;;;;;2041019;28;20192;-77
2024/02/22 05:01:08;;;;;;;0.28;0.28;;;7.20;99.90;;;;;;2047827;28;20708;-76
2024/02/22 05:02:10;;;;;;;0.30;0.30;;;7.30;99.90;;;;;;2052468;28;20191;-77
2024/02/22 05:03:12;;;;;;;0.65;0.65;;;7.40;99.90;;;;;;2045489;28;20186;-77
2024/02/22 05:04:13;;;;;;;0.65;0.65;;;7.30;99.90;;;;;;2045242;28;20186;-75
2024/02/22 05:05:14;;;;;;;0.40;0.40;;;7.30;99.90;;;;;;2050156;28;20198;-76
2024/02/22 05:06:14;;;;;;;0.47;0.47;;;7.40;99.90;;;;;;2051985;28;20231;-76
2024/02/22 05:07:15;;;;;;;0.93;0.50;;;7.30;99.90;;;;;;2046968;28;20933;-76
2024/02/22 05:08:16;;;;;;;0.40;0.40;;;7.30;99.90;;;;;;2046410;28;20297;-76
2024/02/22 05:09:16;;;;;;;0.30;0.30;;;7.40;99.90;;;;;;2048272;28;20239;-76
2024/02/22 05:10:17;;;;;;;0.70;0.40;;;7.40;99.90;;;;;;2037225;29;20240;-76
2024/02/22 05:11:18;;;;;;;0.50;0.50;;;7.40;99.90;;;;;;2035181;29;20696;-77
2024/02/22 05:12:18;;;;;;;0.70;0.70;;;7.30;99.90;;;;;;2050818;28;20990;-76
2024/02/22 05:13:20;;;;;;;1.23;0.77;;;7.30;99.90;;;;;;2048202;28;20235;-76
2024/02/22 05:14:21;;;;;;;0.30;0.30;;;7.30;99.90;;;;;;2033870;28;20734;-75
2024/02/22 05:15:21;;;;;;;0.40;0.40;;;7.30;99.90;;;;;;2052240;28;20238;-76
2024/02/22 05:16:22;;;;;;;0.40;0.40;;;7.40;99.90;;;;;;2049998;28;20701;-76
2024/02/22 05:17:23;;;;;;;0.97;0.60;;;7.40;99.90;;;;;;2045135;28;20813;-76
2024/02/22 05:18:23;;;;;;;0.40;0.40;;;7.40;99.90;;;;;;2041079;28;20343;-77
2024/02/22 05:19:24;;;;;;;0.33;0.33;;;7.40;99.90;;;;;;2054462;28;20238;-76
2024/02/22 05:20:25;;;;;;;1.87;0.60;;;7.40;99.90;;;;;;2066168;28;20237;-76
2024/02/22 05:21:25;;;;;;;0.80;0.60;;;7.40;99.90;;;;;;2054527;28;20312;-76
2024/02/22 05:22:26;;;;;;;0.30;0.30;;;7.40;99.90;;;;;;2059799;28;20283;-76
2024/02/22 05:23:27;;;;;;;0.30;0.30;;;7.40;99.90;;;;;;2061321;28;20312;-76